sensor_id;sensor_type;location;lat;lon;timestamp;pressure;altitude;pressure_sealevel;temperature;humidity
70521;BME280;58442;52.716;23.560;2023-10-19T00:01:41;101028.55;;;6.91;72.62
70521;BME280;58442;52.716;23.560;2023-10-19T00:03:42;101035.08;;;6.90;72.58
70521;BME280;58442;52.716;23.560;2023-10-19T00:05:52;101025.71;;;6.88;72.50
70521;BME280;58442;52.716;23.560;2023-10-19T00:07:54;101033.63;;;6.84;72.46
70521;BME280;58442;52.716;23.560;2023-10-19T00:09:59;101028.36;;;6.79;72.47
70521;BME280;58442;52.716;23.560;2023-10-19T00:12:00;101026.77;;;6.78;72.49
70521;BME280;58442;52.716;23.560;2023-10-19T00:14:07;101035.52;;;6.75;72.42
70521;BME280;58442;52.716;23.560;2023-10-19T00:16:28;101027.24;;;6.71;72.38
70521;BME280;58442;52.716;23.560;2023-10-19T00:18:36;101029.47;;;6.69;72.39
70521;BME280;58442;52.716;23.560;2023-10-19T00:20:45;101033.10;;;6.65;72.41
70521;BME280;58442;52.716;23.560;2023-10-19T00:22:58;101029.13;;;6.62;72.45
70521;BME280;58442;52.716;23.560;2023-10-19T00:24:59;101025.95;;;6.60;72.46
70521;BME280;58442;52.716;23.560;2023-10-19T00:27:09;101021.16;;;6.57;72.47
70521;BME280;58442;52.716;23.560;2023-10-19T00:29:20;101028.78;;;6.55;72.54
70521;BME280;58442;52.716;23.560;2023-10-19T00:31:33;101027.99;;;6.54;72.53
70521;BME280;58442;52.716;23.560;2023-10-19T00:33:41;101023.20;;;6.51;72.54
70521;BME280;58442;52.716;23.560;2023-10-19T00:35:42;101022.73;;;6.49;72.52
70521;BME280;58442;52.716;23.560;2023-10-19T00:37:59;101019.55;;;6.47;72.57
70521;BME280;58442;52.716;23.560;2023-10-19T00:40:20;101023.98;;;6.43;72.58
70521;BME280;58442;52.716;23.560;2023-10-19T00:42:41;101024.29;;;6.42;72.57
70521;BME280;58442;52.716;23.560;2023-10-19T00:44:47;101016.51;;;6.40;72.59
70521;BME280;58442;52.716;23.560;2023-10-19T00:46:51;101021.41;;;6.38;72.59
70521;BME280;58442;52.716;23.560;2023-10-19T00:49:05;101016.32;;;6.37;72.60
70521;BME280;58442;52.716;23.560;2023-10-19T00:51:14;101012.35;;;6.34;72.63
70521;BME280;58442;52.716;23.560;2023-10-19T00:53:31;101012.67;;;6.33;72.64
70521;BME280;58442;52.716;23.560;2023-10-19T00:55:39;101009.78;;;6.29;72.69
70521;BME280;58442;52.716;23.560;2023-10-19T00:57:43;101022.49;;;6.28;72.72
70521;BME280;58442;52.716;23.560;2023-10-19T00:59:49;101012.80;;;6.27;72.75
70521;BME280;58442;52.716;23.560;2023-10-19T01:01:56;101008.83;;;6.25;72.71
70521;BME280;58442;52.716;23.560;2023-10-19T01:04:10;101006.42;;;6.23;72.70
70521;BME280;58442;52.716;23.560;2023-10-19T01:06:20;101007.05;;;6.20;72.72
70521;BME280;58442;52.716;23.560;2023-10-19T01:08:22;101001.98;;;6.19;72.73
70521;BME280;58442;52.716;23.560;2023-10-19T01:10:26;100997.50;;;6.14;72.75
70521;BME280;58442;52.716;23.560;2023-10-19T01:12:29;100992.74;;;6.11;72.83
70521;BME280;58442;52.716;23.560;2023-10-19T01:14:41;100994.62;;;6.11;72.94
70521;BME280;58442;52.716;23.560;2023-10-19T01:16:52;100993.82;;;6.10;72.94
70521;BME280;58442;52.716;23.560;2023-10-19T01:18:57;100995.73;;;6.10;72.82
70521;BME280;58442;52.716;23.560;2023-10-19T01:20:59;100990.96;;;6.07;72.79
70521;BME280;58442;52.716;23.560;2023-10-19T01:23:08;100990.16;;;6.06;72.78
70521;BME280;58442;52.716;23.560;2023-10-19T01:25:21;100974.59;;;6.03;72.73
70521;BME280;58442;52.716;23.560;2023-10-19T01:27:36;100973.31;;;6.00;72.68
70521;BME280;58442;52.716;23.560;2023-10-19T01:29:50;100980.42;;;5.96;72.71
70521;BME280;58442;52.716;23.560;2023-10-19T01:32:12;100982.64;;;5.94;72.76
70521;BME280;58442;52.716;23.560;2023-10-19T01:34:16;100976.77;;;5.92;72.75
70521;BME280;58442;52.716;23.560;2023-10-19T01:36:22;100969.79;;;5.91;72.63
70521;BME280;58442;52.716;23.560;2023-10-19T01:38:27;100968.77;;;5.87;72.63
70521;BME280;58442;52.716;23.560;2023-10-19T01:40:32;100965.59;;;5.85;72.65
70521;BME280;58442;52.716;23.560;2023-10-19T01:42:33;100974.29;;;5.82;72.66
70521;BME280;58442;52.716;23.560;2023-10-19T01:44:35;100964.62;;;5.81;72.68
70521;BME280;58442;52.716;23.560;2023-10-19T01:46:37;100954.45;;;5.78;72.72
70521;BME280;58442;52.716;23.560;2023-10-19T01:48:42;100952.87;;;5.77;72.72
70521;BME280;58442;52.716;23.560;2023-10-19T01:50:45;100953.48;;;5.74;72.75
70521;BME280;58442;52.716;23.560;2023-10-19T01:52:48;100954.59;;;5.73;72.79
70521;BME280;58442;52.716;23.560;2023-10-19T01:54:49;100961.40;;;5.70;72.83
70521;BME280;58442;52.716;23.560;2023-10-19T01:57:03;100956.60;;;5.67;72.87
70521;BME280;58442;52.716;23.560;2023-10-19T01:59:17;100960.09;;;5.68;72.88
70521;BME280;58442;52.716;23.560;2023-10-19T02:01:20;100967.70;;;5.66;72.83
70521;BME280;58442;52.716;23.560;2023-10-19T02:03:30;100975.80;;;5.66;72.78
70521;BME280;58442;52.716;23.560;2023-10-19T02:05:34;100967.23;;;5.64;72.71
70521;BME280;58442;52.716;23.560;2023-10-19T02:07:42;100974.01;;;5.61;72.71
70521;BME280;58442;52.716;23.560;2023-10-19T02:09:44;100975.43;;;5.59;72.74
70521;BME280;58442;52.716;23.560;2023-10-19T02:11:50;100964.45;;;5.55;72.84
70521;BME280;58442;52.716;23.560;2023-10-19T02:13:56;100969.05;;;5.55;72.86
70521;BME280;58442;52.716;23.560;2023-10-19T02:16:05;100969.68;;;5.52;72.90
70521;BME280;58442;52.716;23.560;2023-10-19T02:18:13;100966.50;;;5.49;72.95
70521;BME280;58442;52.716;23.560;2023-10-19T02:20:15;100953.31;;;5.48;73.01
70521;BME280;58442;52.716;23.560;2023-10-19T02:22:23;100959.49;;;5.48;73.06
70521;BME280;58442;52.716;23.560;2023-10-19T02:24:26;100964.89;;;5.48;73.11
70521;BME280;58442;52.716;23.560;2023-10-19T02:26:28;100947.13;;;5.47;73.16
70521;BME280;58442;52.716;23.560;2023-10-19T02:28:32;100960.13;;;5.45;73.21
70521;BME280;58442;52.716;23.560;2023-10-19T02:30:39;100954.73;;;5.45;73.35
70521;BME280;58442;52.716;23.560;2023-10-19T02:32:43;100957.11;;;5.47;73.38
70521;BME280;58442;52.716;23.560;2023-10-19T02:34:44;100947.13;;;5.47;73.42
70521;BME280;58442;52.716;23.560;2023-10-19T02:36:46;100951.91;;;5.51;73.54
70521;BME280;58442;52.716;23.560;2023-10-19T02:38:49;100947.80;;;5.53;73.56
70521;BME280;58442;52.716;23.560;2023-10-19T02:40:52;100942.09;;;5.55;73.62
70521;BME280;58442;52.716;23.560;2023-10-19T02:43:01;100946.89;;;5.58;73.67
70521;BME280;58442;52.716;23.560;2023-10-19T02:45:05;100946.26;;;5.61;73.68
70521;BME280;58442;52.716;23.560;2023-10-19T02:47:08;100949.46;;;5.63;73.64
70521;BME280;58442;52.716;23.560;2023-10-19T02:49:12;100948.84;;;5.66;73.59
70521;BME280;58442;52.716;23.560;2023-10-19T02:51:23;100950.41;;;5.67;73.51
70521;BME280;58442;52.716;23.560;2023-10-19T02:53:34;100950.11;;;5.68;73.49
70521;BME280;58442;52.716;23.560;2023-10-19T02:55:38;100952.02;;;5.68;73.55
70521;BME280;58442;52.716;23.560;2023-10-19T02:57:41;100953.31;;;5.70;73.52
70521;BME280;58442;52.716;23.560;2023-10-19T02:59:47;100942.20;;;5.72;73.48
70521;BME280;58442;52.716;23.560;2023-10-19T03:01:55;100953.00;;;5.72;73.44
70521;BME280;58442;52.716;23.560;2023-10-19T03:04:11;100944.90;;;5.72;73.46
70521;BME280;58442;52.716;23.560;2023-10-19T03:06:22;100944.90;;;5.72;73.46
70521;BME280;58442;52.716;23.560;2023-10-19T03:08:24;100953.00;;;5.72;73.50
70521;BME280;58442;52.716;23.560;2023-10-19T03:10:27;100939.52;;;5.72;73.51
70521;BME280;58442;52.716;23.560;2023-10-19T03:12:40;100945.38;;;5.74;73.53
70521;BME280;58442;52.716;23.560;2023-10-19T03:14:49;100935.39;;;5.74;73.55
70521;BME280;58442;52.716;23.560;2023-10-19T03:16:52;100938.41;;;5.73;73.57
70521;BME280;58442;52.716;23.560;2023-10-19T03:18:56;100936.18;;;5.75;73.54
70521;BME280;58442;52.716;23.560;2023-10-19T03:20:58;100935.90;;;5.76;73.53
70521;BME280;58442;52.716;23.560;2023-10-19T03:23:04;100935.90;;;5.76;73.55
70521;BME280;58442;52.716;23.560;2023-10-19T03:25:07;100933.99;;;5.77;73.60
70521;BME280;58442;52.716;23.560;2023-10-19T03:27:20;100925.91;;;5.77;73.60
70521;BME280;58442;52.716;23.560;2023-10-19T03:29:25;100927.49;;;5.78;73.61
70521;BME280;58442;52.716;23.560;2023-10-19T03:31:37;100930.19;;;5.78;73.62
70521;BME280;58442;52.716;23.560;2023-10-19T03:33:48;100930.19;;;5.78;73.61
70521;BME280;58442;52.716;23.560;2023-10-19T03:35:56;100927.49;;;5.78;73.59
70521;BME280;58442;52.716;23.560;2023-10-19T03:37:57;100933.67;;;5.79;73.57
70521;BME280;58442;52.716;23.560;2023-10-19T03:40:07;100925.11;;;5.76;73.58
70521;BME280;58442;52.716;23.560;2023-10-19T03:42:18;100923.21;;;5.77;73.56
70521;BME280;58442;52.716;23.560;2023-10-19T03:44:23;100926.98;;;5.76;73.62
70521;BME280;58442;52.716;23.560;2023-10-19T03:46:27;100922.42;;;5.76;73.68
70521;BME280;58442;52.716;23.560;2023-10-19T03:48:32;100910.32;;;5.74;73.55
70521;BME280;58442;52.716;23.560;2023-10-19T03:50:39;100918.89;;;5.76;73.73
70521;BME280;58442;52.716;23.560;2023-10-19T03:52:41;100916.20;;;5.76;73.75
70521;BME280;58442;52.716;23.560;2023-10-19T03:54:43;100912.71;;;5.75;73.80
70521;BME280;58442;52.716;23.560;2023-10-19T03:56:45;100911.63;;;5.76;73.81
70521;BME280;58442;52.716;23.560;2023-10-19T03:58:46;100911.63;;;5.76;73.80
70521;BME280;58442;52.716;23.560;2023-10-19T04:00:53;100908.93;;;5.76;73.83
70521;BME280;58442;52.716;23.560;2023-10-19T04:02:55;100909.73;;;5.77;73.83
70521;BME280;58442;52.716;23.560;2023-10-19T04:04:59;100904.33;;;5.77;73.80
70521;BME280;58442;52.716;23.560;2023-10-19T04:07:04;100897.03;;;5.78;73.73
70521;BME280;58442;52.716;23.560;2023-10-19T04:09:16;100898.93;;;5.77;73.70
70521;BME280;58442;52.716;23.560;2023-10-19T04:11:29;100895.45;;;5.76;73.74
70521;BME280;58442;52.716;23.560;2023-10-19T04:13:38;100892.76;;;5.76;73.71
70521;BME280;58442;52.716;23.560;2023-10-19T04:15:40;100902.71;;;5.76;73.69
70521;BME280;58442;52.716;23.560;2023-10-19T04:17:43;100901.63;;;5.77;73.64
70521;BME280;58442;52.716;23.560;2023-10-19T04:19:50;100896.24;;;5.77;73.52
70521;BME280;58442;52.716;23.560;2023-10-19T04:22:06;100900.84;;;5.76;73.69
70521;BME280;58442;52.716;23.560;2023-10-19T04:24:12;100894.63;;;5.76;73.73
70521;BME280;58442;52.716;23.560;2023-10-19T04:26:14;100896.24;;;5.77;73.78
70521;BME280;58442;52.716;23.560;2023-10-19T04:28:19;100903.22;;;5.78;73.81
70521;BME280;58442;52.716;23.560;2023-10-19T04:30:31;100895.13;;;5.78;73.90
70521;BME280;58442;52.716;23.560;2023-10-19T04:32:43;100894.02;;;5.79;73.97
70521;BME280;58442;52.716;23.560;2023-10-19T04:34:44;100889.10;;;5.81;74.01
70521;BME280;58442;52.716;23.560;2023-10-19T04:36:49;100887.98;;;5.82;74.06
70521;BME280;58442;52.716;23.560;2023-10-19T04:38:50;100887.71;;;5.84;74.07
70521;BME280;58442;52.716;23.560;2023-10-19T04:41:04;100887.06;;;5.87;74.07
70521;BME280;58442;52.716;23.560;2023-10-19T04:43:18;100885.95;;;5.88;74.04
70521;BME280;58442;52.716;23.560;2023-10-19T04:45:22;100885.95;;;5.88;74.04
70521;BME280;58442;52.716;23.560;2023-10-19T04:47:23;100888.33;;;5.89;74.09
70521;BME280;58442;52.716;23.560;2023-10-19T04:49:25;100894.27;;;5.91;74.10
70521;BME280;58442;52.716;23.560;2023-10-19T04:51:34;100885.06;;;5.92;74.14
70521;BME280;58442;52.716;23.560;2023-10-19T04:53:39;100887.43;;;5.94;74.17
70521;BME280;58442;52.716;23.560;2023-10-19T04:55:41;100887.91;;;5.96;74.17
70521;BME280;58442;52.716;23.560;2023-10-19T04:57:44;100891.41;;;5.96;74.17
70521;BME280;58442;52.716;23.560;2023-10-19T04:59:48;100894.60;;;5.98;74.24
70521;BME280;58442;52.716;23.560;2023-10-19T05:01:50;100895.08;;;6.00;74.33
70521;BME280;58442;52.716;23.560;2023-10-19T05:03:52;100891.27;;;6.01;74.36
70521;BME280;58442;52.716;23.560;2023-10-19T05:05:54;100889.05;;;6.03;74.40
70521;BME280;58442;52.716;23.560;2023-10-19T05:08:03;100886.84;;;6.06;74.43
70521;BME280;58442;52.716;23.560;2023-10-19T05:10:06;100888.12;;;6.08;74.51
70521;BME280;58442;52.716;23.560;2023-10-19T05:12:07;100878.59;;;6.11;74.52
70521;BME280;58442;52.716;23.560;2023-10-19T05:14:10;100887.18;;;6.13;74.51
70521;BME280;58442;52.716;23.560;2023-10-19T05:16:18;100885.76;;;6.15;74.53
70521;BME280;58442;52.716;23.560;2023-10-19T05:18:21;100885.94;;;6.19;74.56
70521;BME280;58442;52.716;23.560;2023-10-19T05:20:22;100882.91;;;6.20;74.58
70521;BME280;58442;52.716;23.560;2023-10-19T05:22:26;100887.98;;;6.22;74.57
70521;BME280;58442;52.716;23.560;2023-10-19T05:24:34;100886.56;;;6.24;74.53
70521;BME280;58442;52.716;23.560;2023-10-19T05:26:35;100885.95;;;6.27;74.53
70521;BME280;58442;52.716;23.560;2023-10-19T05:28:37;100884.52;;;6.30;74.50
70521;BME280;58442;52.716;23.560;2023-10-19T05:30:38;100882.33;;;6.32;74.45
70521;BME280;58442;52.716;23.560;2023-10-19T05:32:48;100877.38;;;6.34;74.43
70521;BME280;58442;52.716;23.560;2023-10-19T05:34:50;100873.57;;;6.35;74.43
70521;BME280;58442;52.716;23.560;2023-10-19T05:36:52;100877.86;;;6.36;74.45
70521;BME280;58442;52.716;23.560;2023-10-19T05:38:58;100872.94;;;6.38;74.49
70521;BME280;58442;52.716;23.560;2023-10-19T05:41:03;100885.34;;;6.39;74.52
70521;BME280;58442;52.716;23.560;2023-10-19T05:43:05;100884.70;;;6.42;74.52
70521;BME280;58442;52.716;23.560;2023-10-19T05:45:08;100878.69;;;6.45;74.49
70521;BME280;58442;52.716;23.560;2023-10-19T05:47:13;100886.47;;;6.47;74.48
70521;BME280;58442;52.716;23.560;2023-10-19T05:49:18;100893.77;;;6.46;74.49
70521;BME280;58442;52.716;23.560;2023-10-19T05:51:20;100895.36;;;6.47;74.54
70521;BME280;58442;52.716;23.560;2023-10-19T05:53:23;100886.15;;;6.48;74.56
70521;BME280;58442;52.716;23.560;2023-10-19T05:55:24;100898.53;;;6.49;74.56
70521;BME280;58442;52.716;23.560;2023-10-19T05:57:33;100893.31;;;6.53;74.63
70521;BME280;58442;52.716;23.560;2023-10-19T05:59:34;100895.69;;;6.54;74.62
70521;BME280;58442;52.716;23.560;2023-10-19T06:01:36;100896.16;;;6.56;74.60
70521;BME280;58442;52.716;23.560;2023-10-19T06:03:42;100897.74;;;6.57;74.62
70521;BME280;58442;52.716;23.560;2023-10-19T06:05:48;100898.24;;;6.60;74.63
70521;BME280;58442;52.716;23.560;2023-10-19T06:07:50;100901.41;;;6.62;74.63
70521;BME280;58442;52.716;23.560;2023-10-19T06:09:53;100892.20;;;6.63;74.62
70521;BME280;58442;52.716;23.560;2023-10-19T06:11:54;100888.88;;;6.66;74.60
70521;BME280;58442;52.716;23.560;2023-10-19T06:14:04;100892.04;;;6.68;74.61
70521;BME280;58442;52.716;23.560;2023-10-19T06:16:07;100890.61;;;6.70;74.65
70521;BME280;58442;52.716;23.560;2023-10-19T06:18:09;100894.90;;;6.71;74.64
70521;BME280;58442;52.716;23.560;2023-10-19T06:20:12;100890.78;;;6.74;74.64
70521;BME280;58442;52.716;23.560;2023-10-19T06:22:25;100889.66;;;6.75;74.63
70521;BME280;58442;52.716;23.560;2023-10-19T06:24:27;100887.75;;;6.75;74.71
70521;BME280;58442;52.716;23.560;2023-10-19T06:26:28;100891.73;;;6.78;74.76
70521;BME280;58442;52.716;23.560;2023-10-19T06:28:30;100895.71;;;6.80;74.73
70521;BME280;58442;52.716;23.560;2023-10-19T06:30:39;100894.27;;;6.83;74.75
70521;BME280;58442;52.716;23.560;2023-10-19T06:32:41;100893.63;;;6.86;74.77
70521;BME280;58442;52.716;23.560;2023-10-19T06:34:42;100892.53;;;6.87;74.82
70521;BME280;58442;52.716;23.560;2023-10-19T06:36:44;100899.98;;;6.90;74.80
70521;BME280;58442;52.716;23.560;2023-10-19T06:38:47;100902.36;;;6.92;74.77
70521;BME280;58442;52.716;23.560;2023-10-19T06:40:52;100897.14;;;6.95;74.80
70521;BME280;58442;52.716;23.560;2023-10-19T06:42:57;100893.31;;;6.96;74.78
70521;BME280;58442;52.716;23.560;2023-10-19T06:45:00;100898.39;;;6.98;74.78
70521;BME280;58442;52.716;23.560;2023-10-19T06:47:02;100894.57;;;6.99;74.77
70521;BME280;58442;52.716;23.560;2023-10-19T06:49:04;100900.47;;;7.01;74.74
70521;BME280;58442;52.716;23.560;2023-10-19T06:51:05;100892.84;;;7.03;74.68
70521;BME280;58442;52.716;23.560;2023-10-19T06:53:07;100891.39;;;7.05;74.66
70521;BME280;58442;52.716;23.560;2023-10-19T06:55:18;100891.89;;;7.07;74.68
70521;BME280;58442;52.716;23.560;2023-10-19T06:57:23;100888.40;;;7.07;74.70
70521;BME280;58442;52.716;23.560;2023-10-19T06:59:25;100891.23;;;7.10;74.76
70521;BME280;58442;52.716;23.560;2023-10-19T07:01:26;100886.29;;;7.12;74.73
70521;BME280;58442;52.716;23.560;2023-10-19T07:03:32;100890.75;;;7.17;74.70
70521;BME280;58442;52.716;23.560;2023-10-19T07:05:34;100889.30;;;7.20;74.69
70521;BME280;58442;52.716;23.560;2023-10-19T07:07:37;100880.57;;;7.23;74.66
70521;BME280;58442;52.716;23.560;2023-10-19T07:09:40;100885.32;;;7.26;74.63
70521;BME280;58442;52.716;23.560;2023-10-19T07:11:47;100881.99;;;7.29;74.64
70521;BME280;58442;52.716;23.560;2023-10-19T07:13:48;100886.75;;;7.32;74.66
70521;BME280;58442;52.716;23.560;2023-10-19T07:15:50;100887.21;;;7.34;74.63
70521;BME280;58442;52.716;23.560;2023-10-19T07:17:53;100883.09;;;7.36;74.61
70521;BME280;58442;52.716;23.560;2023-10-19T07:20:03;100890.08;;;7.37;74.64
70521;BME280;58442;52.716;23.560;2023-10-19T07:22:06;100877.81;;;7.40;74.62
70521;BME280;58442;52.716;23.560;2023-10-19T07:24:11;100877.51;;;7.42;74.62
70521;BME280;58442;52.716;23.560;2023-10-19T07:26:12;100881.02;;;7.42;74.68
70521;BME280;58442;52.716;23.560;2023-10-19T07:28:17;100873.03;;;7.46;74.73
70521;BME280;58442;52.716;23.560;2023-10-19T07:30:21;100870.49;;;7.49;74.73
70521;BME280;58442;52.716;23.560;2023-10-19T07:32:26;100870.95;;;7.51;74.66
70521;BME280;58442;52.716;23.560;2023-10-19T07:34:33;100867.13;;;7.52;74.63
70521;BME280;58442;52.716;23.560;2023-10-19T07:36:35;100865.68;;;7.55;74.62
70521;BME280;58442;52.716;23.560;2023-10-19T07:38:38;100862.67;;;7.56;74.64
70521;BME280;58442;52.716;23.560;2023-10-19T07:40:39;100855.02;;;7.58;74.59
70521;BME280;58442;52.716;23.560;2023-10-19T07:42:41;100853.90;;;7.59;74.63
70521;BME280;58442;52.716;23.560;2023-10-19T07:44:47;100854.36;;;7.61;74.67
70521;BME280;58442;52.716;23.560;2023-10-19T07:46:48;100855.98;;;7.62;74.69
70521;BME280;58442;52.716;23.560;2023-10-19T07:48:50;100853.73;;;7.64;74.68
70521;BME280;58442;52.716;23.560;2023-10-19T07:50:53;100854.52;;;7.65;74.67
70521;BME280;58442;52.716;23.560;2023-10-19T07:53:02;100856.11;;;7.66;74.69
70521;BME280;58442;52.716;23.560;2023-10-19T07:55:05;100851.95;;;7.68;74.72
70521;BME280;58442;52.716;23.560;2023-10-19T07:57:08;100852.44;;;7.71;74.71
70521;BME280;58442;52.716;23.560;2023-10-19T07:59:13;100847.48;;;7.73;74.65
70521;BME280;58442;52.716;23.560;2023-10-19T08:01:17;100840.31;;;7.77;74.65
70521;BME280;58442;52.716;23.560;2023-10-19T08:03:18;100845.06;;;7.80;74.58
70521;BME280;58442;52.716;23.560;2023-10-19T08:05:21;100838.23;;;7.82;74.53
70521;BME280;58442;52.716;23.560;2023-10-19T08:07:23;100841.52;;;7.88;74.51
70521;BME280;58442;52.716;23.560;2023-10-19T08:09:31;100838.52;;;7.89;74.51
70521;BME280;58442;52.716;23.560;2023-10-19T08:11:36;100838.63;;;7.93;74.56
70521;BME280;58442;52.716;23.560;2023-10-19T08:13:37;100838.78;;;7.97;74.58
70521;BME280;58442;52.716;23.560;2023-10-19T08:15:40;100845.91;;;8.01;74.57
70521;BME280;58442;52.716;23.560;2023-10-19T08:17:48;100836.81;;;8.06;74.55
70521;BME280;58442;52.716;23.560;2023-10-19T08:19:51;100838.55;;;8.10;74.55
70521;BME280;58442;52.716;23.560;2023-10-19T08:21:53;100840.26;;;8.15;74.54
70521;BME280;58442;52.716;23.560;2023-10-19T08:23:54;100839.27;;;8.19;74.53
70521;BME280;58442;52.716;23.560;2023-10-19T08:26:03;100844.52;;;8.25;74.53
70521;BME280;58442;52.716;23.560;2023-10-19T08:28:06;100833.02;;;8.28;74.52
70521;BME280;58442;52.716;23.560;2023-10-19T08:30:08;100832.37;;;8.31;74.51
70521;BME280;58442;52.716;23.560;2023-10-19T08:32:10;100832.49;;;8.34;74.52
70521;BME280;58442;52.716;23.560;2023-10-19T08:34:16;100825.63;;;8.37;74.54
70521;BME280;58442;52.716;23.560;2023-10-19T08:36:20;100823.41;;;8.39;74.55
70521;BME280;58442;52.716;23.560;2023-10-19T08:38:24;100821.62;;;8.43;74.51
70521;BME280;58442;52.716;23.560;2023-10-19T08:40:27;100820.17;;;8.45;74.54
70521;BME280;58442;52.716;23.560;2023-10-19T08:42:31;100815.22;;;8.47;74.52
70521;BME280;58442;52.716;23.560;2023-10-19T08:44:35;100820.77;;;8.51;74.56
70521;BME280;58442;52.716;23.560;2023-10-19T08:46:43;100818.52;;;8.53;74.54
70521;BME280;58442;52.716;23.560;2023-10-19T08:48:46;100815.92;;;8.57;74.48
70521;BME280;58442;52.716;23.560;2023-10-19T08:50:48;100807.95;;;8.60;74.48
70521;BME280;58442;52.716;23.560;2023-10-19T08:52:53;100813.81;;;8.62;74.49
70521;BME280;58442;52.716;23.560;2023-10-19T08:54:55;100810.45;;;8.65;74.48
70521;BME280;58442;52.716;23.560;2023-10-19T08:56:56;100803.91;;;8.66;74.48
70521;BME280;58442;52.716;23.560;2023-10-19T08:59:01;100804.81;;;8.70;74.46
70521;BME280;58442;52.716;23.560;2023-10-19T09:01:03;100800.66;;;8.73;74.47
70521;BME280;58442;52.716;23.560;2023-10-19T09:03:07;100791.51;;;8.77;74.42
70521;BME280;58442;52.716;23.560;2023-10-19T09:05:10;100783.32;;;8.86;74.41
70521;BME280;58442;52.716;23.560;2023-10-19T09:07:25;100785.94;;;8.95;74.33
70521;BME280;58442;52.716;23.560;2023-10-19T09:09:37;100780.55;;;9.07;74.21
70521;BME280;58442;52.716;23.560;2023-10-19T09:11:41;100778.88;;;9.15;74.12
70521;BME280;58442;52.716;23.560;2023-10-19T09:13:48;100785.67;;;9.21;74.06
70521;BME280;58442;52.716;23.560;2023-10-19T09:15:51;100784.64;;;9.25;74.09
70521;BME280;58442;52.716;23.560;2023-10-19T09:17:56;100783.63;;;9.30;74.07
70521;BME280;58442;52.716;23.560;2023-10-19T09:19:57;100793.48;;;9.35;74.09
70521;BME280;58442;52.716;23.560;2023-10-19T09:22:03;100786.24;;;9.39;74.05
70521;BME280;58442;52.716;23.560;2023-10-19T09:24:09;100791.45;;;9.44;74.03
70521;BME280;58442;52.716;23.560;2023-10-19T09:26:11;100784.67;;;9.50;74.00
70521;BME280;58442;52.716;23.560;2023-10-19T09:28:13;100780.95;;;9.54;73.93
70521;BME280;58442;52.716;23.560;2023-10-19T09:30:15;100775.97;;;9.56;73.88
70521;BME280;58442;52.716;23.560;2023-10-19T09:32:21;100776.77;;;9.57;73.78
70521;BME280;58442;52.716;23.560;2023-10-19T09:34:25;100767.84;;;9.56;73.76
70521;BME280;58442;52.716;23.560;2023-10-19T09:36:44;100759.34;;;9.58;73.73
70521;BME280;58442;52.716;23.560;2023-10-19T09:38:50;100757.87;;;9.60;73.45
70521;BME280;58442;52.716;23.560;2023-10-19T09:40:54;100749.06;;;9.64;73.71
70521;BME280;58442;52.716;23.560;2023-10-19T09:42:57;100742.94;;;9.67;73.67
70521;BME280;58442;52.716;23.560;2023-10-19T09:44:59;100740.35;;;9.70;73.64
70521;BME280;58442;52.716;23.560;2023-10-19T09:47:11;100735.37;;;9.72;73.61
70521;BME280;58442;52.716;23.560;2023-10-19T09:49:14;100733.55;;;9.76;73.66
70521;BME280;58442;52.716;23.560;2023-10-19T09:51:17;100733.77;;;9.83;73.58
70521;BME280;58442;52.716;23.560;2023-10-19T09:53:30;100728.35;;;9.83;73.53
70521;BME280;58442;52.716;23.560;2023-10-19T09:55:36;100727.20;;;9.84;73.59
70521;BME280;58442;52.716;23.560;2023-10-19T10:00:02;100718.37;;;9.87;73.53
70521;BME280;58442;52.716;23.560;2023-10-19T10:02:15;100717.70;;;9.91;73.53
70521;BME280;58442;52.716;23.560;2023-10-19T10:08:48;100688.48;;;10.00;73.35
70521;BME280;58442;52.716;23.560;2023-10-19T10:10:51;100689.27;;;10.00;73.33
70521;BME280;58442;52.716;23.560;2023-10-19T10:12:52;100690.05;;;10.01;73.30
70521;BME280;58442;52.716;23.560;2023-10-19T10:15:02;100695.16;;;10.02;73.28
70521;BME280;58442;52.716;23.560;2023-10-19T10:17:16;100690.17;;;10.04;73.19
70521;BME280;58442;52.716;23.560;2023-10-19T10:19:24;100688.34;;;10.08;73.17
70521;BME280;58442;52.716;23.560;2023-10-19T10:21:27;100694.23;;;10.10;73.16
70521;BME280;58442;52.716;23.560;2023-10-19T10:23:29;100676.36;;;10.09;73.14
70521;BME280;58442;52.716;23.560;2023-10-19T10:25:35;100673.38;;;10.14;73.20
70521;BME280;58442;52.716;23.560;2023-10-19T10:30:01;100674.36;;;10.22;73.02
70521;BME280;58442;52.716;23.560;2023-10-19T10:32:10;100663.99;;;10.24;73.01
70521;BME280;58442;52.716;23.560;2023-10-19T10:36:56;100660.21;;;10.29;72.83
70521;BME280;58442;52.716;23.560;2023-10-19T10:38:39;100654.45;;;10.30;72.72
70521;BME280;58442;52.716;23.560;2023-10-19T10:40:45;100652.52;;;10.31;72.66
70521;BME280;58442;52.716;23.560;2023-10-19T10:42:48;100650.60;;;10.31;72.63
70521;BME280;58442;52.716;23.560;2023-10-19T10:44:50;100649.02;;;10.30;72.60
70521;BME280;58442;52.716;23.560;2023-10-19T10:46:56;100645.52;;;10.30;72.58
70521;BME280;58442;52.716;23.560;2023-10-19T10:48:58;100642.80;;;10.30;72.58
70521;BME280;58442;52.716;23.560;2023-10-19T10:50:59;100628.41;;;10.29;72.51
70521;BME280;58442;52.716;23.560;2023-10-19T10:53:01;100619.04;;;10.27;72.48
70521;BME280;58442;52.716;23.560;2023-10-19T10:55:13;100617.10;;;10.27;72.50
70521;BME280;58442;52.716;23.560;2023-10-19T10:57:15;100617.21;;;10.31;72.48
70521;BME280;58442;52.716;23.560;2023-10-19T10:59:17;100613.44;;;10.35;72.44
70521;BME280;58442;52.716;23.560;2023-10-19T11:03:31;100602.32;;;10.40;72.40
70521;BME280;58442;52.716;23.560;2023-10-19T11:05:32;100602.75;;;10.43;72.42
70521;BME280;58442;52.716;23.560;2023-10-19T11:10:08;100599.96;;;10.55;72.16
70521;BME280;58442;52.716;23.560;2023-10-19T11:12:13;100591.13;;;10.58;72.15